Time;durP1;ratioP1;P1;durP2;ratioP2;P2;SDS_P1;SDS_P2;PMS_P1;PMS_P2;Temp;Humidity;BMP_temperature;BMP_pressure;BME280_temperature;BME280_humidity;BME280_pressure;Samples;Min_cycle;Max_cycle;Signal;HPM_P1;HPM_P2
2021/11/09 00:01:10;;;;;;;38.40;26.40;;;4.30;99.90;;;;;;5094798;28;20469;-73
2021/11/09 00:03:44;;;;;;;30.70;23.83;;;4.20;99.90;;;;;;5092843;28;20473;-70
2021/11/09 00:06:18;;;;;;;35.00;25.40;;;4.20;99.90;;;;;;5093793;28;20548;-70
2021/11/09 00:08:53;;;;;;;33.90;24.90;;;4.10;99.90;;;;;;5094953;28;20488;-70
2021/11/09 00:11:20;;;;;;;31.73;24.60;;;4.10;99.90;;;;;;5094303;28;20555;-71
2021/11/09 00:13:47;;;;;;;30.23;25.50;;;4.00;99.90;;;;;;5099632;28;20485;-69
2021/11/09 00:16:15;;;;;;;37.50;26.40;;;3.90;99.90;;;;;;5098990;28;20468;-68
2021/11/09 00:18:41;;;;;;;31.87;24.43;;;3.90;99.90;;;;;;5100861;28;20461;-69
2021/11/09 00:21:08;;;;;;;31.13;26.50;;;3.90;99.90;;;;;;5100574;28;20953;-69
2021/11/09 00:23:35;;;;;;;32.43;25.57;;;3.90;99.90;;;;;;5103538;28;20476;-69
2021/11/09 00:26:03;;;;;;;30.07;26.87;;;4.00;99.90;;;;;;5104885;28;20462;-69
2021/11/09 00:28:30;;;;;;;29.87;26.80;;;3.90;99.90;;;;;;5109783;28;20456;-70
2021/11/09 00:30:57;;;;;;;39.37;28.20;;;3.90;99.90;;;;;;5106887;28;20483;-69
2021/11/09 00:33:24;;;;;;;29.40;26.50;;;3.80;99.90;;;;;;5103702;28;20825;-69
2021/11/09 00:35:51;;;;;;;43.20;28.10;;;3.80;99.90;;;;;;5107191;28;20985;-69
2021/11/09 00:38:18;;;;;;;32.40;28.87;;;3.80;99.90;;;;;;5109059;28;20456;-69
2021/11/09 00:40:45;;;;;;;32.30;28.50;;;3.70;99.90;;;;;;5108650;28;20471;-69
2021/11/09 00:43:16;;;;;;;32.80;28.23;;;3.70;99.90;;;;;;5106844;28;20468;-68
2021/11/09 00:45:43;;;;;;;35.47;27.03;;;3.70;99.90;;;;;;5108147;28;20469;-68
2021/11/09 00:48:10;;;;;;;29.33;26.43;;;3.70;99.90;;;;;;5099864;28;20465;-71
2021/11/09 00:50:40;;;;;;;30.53;27.30;;;3.60;99.90;;;;;;5099048;28;20460;-68
2021/11/09 00:53:09;;;;;;;36.67;28.37;;;3.60;99.90;;;;;;5093190;28;20585;-71
2021/11/09 00:55:36;;;;;;;30.97;27.30;;;3.60;99.90;;;;;;5094640;28;20457;-69
2021/11/09 00:58:04;;;;;;;41.77;29.37;;;3.60;99.90;;;;;;5099419;28;20978;-70
2021/11/09 01:00:33;;;;;;;31.37;27.70;;;3.60;99.90;;;;;;5098258;28;20466;-71
2021/11/09 01:03:02;;;;;;;38.80;26.60;;;3.50;99.90;;;;;;5091888;28;20943;-72
2021/11/09 01:05:30;;;;;;;37.80;28.10;;;3.50;99.90;;;;;;5098538;28;20458;-72
2021/11/09 01:07:59;;;;;;;37.17;28.20;;;3.40;99.90;;;;;;5096056;28;21051;-70
2021/11/09 01:10:27;;;;;;;32.17;28.37;;;3.40;99.90;;;;;;5092027;28;20453;-71
2021/11/09 01:12:54;;;;;;;30.07;27.13;;;3.40;99.90;;;;;;5095084;28;20488;-73
2021/11/09 01:15:25;;;;;;;34.00;29.30;;;3.40;99.90;;;;;;5093614;28;20454;-69
2021/11/09 01:17:54;;;;;;;40.87;28.10;;;3.50;99.90;;;;;;5106547;28;20471;-70
2021/11/09 01:20:24;;;;;;;29.90;27.27;;;3.50;99.90;;;;;;5092762;28;20466;-72
2021/11/09 01:22:53;;;;;;;32.23;26.90;;;3.50;99.90;;;;;;5090898;28;20454;-70
2021/11/09 01:25:21;;;;;;;36.23;29.40;;;3.40;99.90;;;;;;5096816;28;20476;-70
2021/11/09 01:27:48;;;;;;;29.83;27.00;;;3.40;99.90;;;;;;5094957;28;20474;-74
2021/11/09 01:30:17;;;;;;;29.53;26.83;;;3.40;99.90;;;;;;5096225;28;20482;-71
2021/11/09 01:32:45;;;;;;;33.10;25.70;;;3.30;99.90;;;;;;5101631;28;20460;-72
2021/11/09 01:35:13;;;;;;;33.17;26.37;;;3.30;99.90;;;;;;5098051;28;20466;-72
2021/11/09 01:37:40;;;;;;;35.67;28.07;;;3.30;99.90;;;;;;5099658;28;20465;-70
2021/11/09 01:40:09;;;;;;;37.20;28.50;;;3.40;99.90;;;;;;5093577;28;20458;-69
2021/11/09 01:42:37;;;;;;;38.17;27.93;;;3.60;99.90;;;;;;5100234;28;20466;-69
2021/11/09 01:45:05;;;;;;;40.20;28.93;;;3.70;99.90;;;;;;5096459;28;20465;-70
2021/11/09 01:47:32;;;;;;;49.03;27.67;;;3.80;99.90;;;;;;5095668;28;20497;-69
2021/11/09 01:49:59;;;;;;;31.30;27.50;;;3.80;99.90;;;;;;5093812;28;20457;-69
2021/11/09 01:52:28;;;;;;;42.53;27.50;;;3.90;99.90;;;;;;5101368;28;20458;-72
2021/11/09 01:54:55;;;;;;;30.30;27.10;;;4.00;99.90;;;;;;5097241;28;20488;-71
2021/11/09 01:57:22;;;;;;;37.73;26.30;;;4.00;99.90;;;;;;5099065;28;20468;-69
2021/11/09 01:59:50;;;;;;;44.60;28.50;;;4.10;99.90;;;;;;5099083;28;20834;-71
2021/11/09 02:02:19;;;;;;;30.97;27.40;;;4.30;99.90;;;;;;5096432;28;20541;-70
2021/11/09 02:04:46;;;;;;;36.23;27.43;;;4.30;99.90;;;;;;5097294;28;20943;-71
2021/11/09 02:07:13;;;;;;;49.17;27.37;;;4.40;99.90;;;;;;5097219;28;20533;-70
2021/11/09 02:09:42;;;;;;;41.47;26.60;;;4.40;99.90;;;;;;5097597;28;20820;-71
2021/11/09 02:12:09;;;;;;;35.90;27.60;;;4.40;99.90;;;;;;5091766;28;20991;-71
2021/11/09 02:14:36;;;;;;;38.47;27.67;;;4.40;99.90;;;;;;5095270;28;20987;-70
2021/11/09 02:17:04;;;;;;;46.20;27.70;;;4.30;99.90;;;;;;5093017;28;20758;-72
2021/11/09 02:19:31;;;;;;;31.03;26.23;;;4.30;99.90;;;;;;5095103;28;20462;-67
2021/11/09 02:22:00;;;;;;;45.23;29.60;;;4.30;99.90;;;;;;5093353;28;21061;-70
2021/11/09 02:24:27;;;;;;;42.40;28.47;;;4.30;99.90;;;;;;5099009;28;20484;-70
2021/11/09 02:26:53;;;;;;;47.43;29.37;;;4.30;99.90;;;;;;5098808;28;20449;-70
2021/11/09 02:29:20;;;;;;;41.27;26.77;;;4.20;99.90;;;;;;5103226;28;20461;-70
2021/11/09 02:31:47;;;;;;;34.27;28.27;;;4.20;99.90;;;;;;5098724;28;20485;-71
2021/11/09 02:34:14;;;;;;;35.90;27.33;;;4.10;99.90;;;;;;5099211;28;20498;-69
2021/11/09 02:36:41;;;;;;;35.00;27.63;;;4.00;99.90;;;;;;5095117;28;21248;-71
2021/11/09 02:39:10;;;;;;;42.97;28.23;;;3.90;99.90;;;;;;5096246;28;20458;-69
2021/11/09 02:41:37;;;;;;;35.70;27.60;;;3.80;99.90;;;;;;5089473;28;20560;-68
2021/11/09 02:44:04;;;;;;;33.97;27.83;;;3.70;99.90;;;;;;5094569;28;20484;-68
2021/11/09 02:46:39;;;;;;;41.27;26.93;;;3.50;99.90;;;;;;5097019;28;20460;-72
2021/11/09 02:49:11;;;;;;;32.57;27.13;;;3.40;99.90;;;;;;5094493;28;20449;-71
2021/11/09 02:51:41;;;;;;;33.97;28.17;;;3.30;99.90;;;;;;5097167;28;20828;-68
2021/11/09 02:54:15;;;;;;;31.23;27.30;;;3.20;99.90;;;;;;5097997;28;20833;-71
2021/11/09 02:56:46;;;;;;;30.90;27.73;;;3.20;99.90;;;;;;5095739;28;20493;-70
2021/11/09 02:59:27;;;;;;;37.43;27.60;;;3.20;99.90;;;;;;5094802;28;20824;-69
2021/11/09 03:01:57;;;;;;;38.57;29.73;;;3.30;99.90;;;;;;5096571;28;20462;-68
2021/11/09 03:04:35;;;;;;;34.10;28.60;;;3.30;99.90;;;;;;5096680;28;20466;-69
2021/11/09 03:07:05;;;;;;;37.00;28.43;;;3.30;99.90;;;;;;5097365;28;20452;-69
2021/11/09 03:09:41;;;;;;;32.00;28.57;;;3.30;99.90;;;;;;5097352;28;20465;-71
2021/11/09 03:12:10;;;;;;;31.80;27.80;;;3.30;99.90;;;;;;5102078;28;21297;-70
2021/11/09 03:14:38;;;;;;;31.43;28.10;;;3.20;99.90;;;;;;5090923;28;21072;-72
2021/11/09 03:17:13;;;;;;;35.03;27.20;;;3.10;99.90;;;;;;5096320;28;20513;-72
2021/11/09 03:19:44;;;;;;;35.97;27.53;;;3.00;99.90;;;;;;5097772;28;20461;-70
2021/11/09 03:44:22;;;;;;;33.70;30.00;;;3.60;99.90;;;;;;5089398;28;20514;-72
2021/11/09 03:46:52;;;;;;;34.07;30.73;;;3.50;99.90;;;;;;5096681;28;21077;-68
2021/11/09 03:49:21;;;;;;;39.80;33.30;;;3.50;99.90;;;;;;5093869;28;20462;-72
2021/11/09 03:51:49;;;;;;;49.93;33.63;;;3.50;99.90;;;;;;5095270;28;20460;-69
2021/11/09 03:54:17;;;;;;;38.87;31.90;;;3.60;99.90;;;;;;5093127;28;20488;-70
2021/11/09 03:56:50;;;;;;;33.33;30.10;;;3.60;99.90;;;;;;5091302;28;20462;-69
2021/11/09 03:59:19;;;;;;;40.57;31.23;;;3.60;99.90;;;;;;5100514;28;20824;-72
2021/11/09 04:02:01;;;;;;;34.57;30.87;;;3.60;99.90;;;;;;5087324;28;20465;-71
2021/11/09 04:04:35;;;;;;;36.47;31.70;;;3.50;99.90;;;;;;5094666;28;20952;-72
2021/11/09 04:07:08;;;;;;;31.53;28.30;;;3.50;99.90;;;;;;5097238;28;20586;-70
2021/11/09 04:09:49;;;;;;;36.40;28.60;;;3.50;99.90;;;;;;5090281;28;20462;-70
2021/11/09 04:12:30;;;;;;;32.40;29.23;;;3.30;99.90;;;;;;5095251;28;20483;-69
2021/11/09 04:15:07;;;;;;;41.33;30.33;;;3.10;99.90;;;;;;5094872;28;20493;-70
2021/11/09 04:17:47;;;;;;;32.33;29.13;;;3.10;99.90;;;;;;5092230;28;20473;-70
2021/11/09 04:20:27;;;;;;;33.57;30.10;;;3.00;99.90;;;;;;5101288;28;20972;-68
2021/11/09 04:26:11;;;;;;;38.43;33.47;;;2.80;99.90;;;;;;5063710;28;20457;-72
2021/11/09 04:28:51;;;;;;;34.17;30.73;;;2.80;99.90;;;;;;5103872;28;20995;-69
2021/11/09 04:31:37;;;;;;;32.23;29.23;;;2.80;99.90;;;;;;5096864;28;20493;-70
2021/11/09 04:40:15;;;;;;;37.43;29.43;;;2.50;99.90;;;;;;5039129;28;20471;-68
2021/11/09 04:48:42;;;;;;;33.30;29.77;;;2.40;99.90;;;;;;5079639;28;20453;-68
2021/11/09 05:02:22;;;;;;;64.07;31.60;;;2.60;99.90;;;;;;5065421;28;20516;-69
2021/11/09 05:10:21;;;;;;;52.07;32.57;;;3.10;99.90;;;;;;5103306;28;20504;-71
2021/11/09 05:12:48;;;;;;;59.03;33.10;;;3.20;99.90;;;;;;5100843;28;20543;-69
2021/11/09 05:15:14;;;;;;;48.17;32.20;;;3.20;99.90;;;;;;5099298;28;20492;-70
2021/11/09 05:17:43;;;;;;;53.03;32.50;;;3.20;99.90;;;;;;5099325;28;20465;-69
2021/11/09 05:20:10;;;;;;;57.47;32.93;;;3.20;99.90;;;;;;5096214;28;20458;-67
2021/11/09 05:22:38;;;;;;;54.70;33.40;;;3.30;99.90;;;;;;5092080;28;20828;-67
2021/11/09 05:25:06;;;;;;;63.50;35.63;;;3.30;99.90;;;;;;5100491;28;20484;-70
2021/11/09 05:27:33;;;;;;;53.23;35.13;;;3.40;99.90;;;;;;5099570;28;20460;-68
2021/11/09 05:30:00;;;;;;;54.70;32.20;;;3.40;99.90;;;;;;5099211;28;20458;-72
2021/11/09 05:32:27;;;;;;;65.80;32.10;;;3.40;99.90;;;;;;5104028;28;20983;-68
2021/11/09 05:34:55;;;;;;;65.93;33.00;;;3.30;99.90;;;;;;5095626;28;20499;-71
2021/11/09 05:37:26;;;;;;;38.17;31.30;;;3.20;99.90;;;;;;5095567;28;20760;-71
2021/11/09 05:39:54;;;;;;;42.63;33.10;;;3.10;99.90;;;;;;5105822;28;20461;-68
2021/11/09 05:42:22;;;;;;;51.23;32.07;;;3.00;99.90;;;;;;5096189;28;20472;-71
2021/11/09 05:44:50;;;;;;;65.53;34.63;;;3.00;99.90;;;;;;5096735;28;20466;-70
2021/11/09 05:47:17;;;;;;;52.07;33.67;;;2.90;99.90;;;;;;5098926;28;20476;-70
2021/11/09 05:49:45;;;;;;;45.10;31.43;;;2.80;99.90;;;;;;5095226;28;20541;-70
2021/11/09 05:52:13;;;;;;;46.50;32.30;;;2.80;99.90;;;;;;5100348;28;20568;-69
2021/11/09 05:54:40;;;;;;;40.73;32.50;;;2.80;99.90;;;;;;5101100;28;20491;-70
2021/11/09 05:57:08;;;;;;;39.20;32.83;;;2.80;99.90;;;;;;5094646;28;20907;-70
2021/11/09 05:59:35;;;;;;;52.37;33.30;;;2.80;99.90;;;;;;5098903;28;20454;-69
2021/11/09 06:02:04;;;;;;;44.73;32.40;;;2.70;99.90;;;;;;5093662;28;20472;-70
2021/11/09 06:04:30;;;;;;;41.90;32.37;;;2.60;99.90;;;;;;5100754;28;20469;-72
2021/11/09 06:06:57;;;;;;;52.73;33.93;;;2.60;99.90;;;;;;5097700;28;20983;-70
2021/11/09 06:09:25;;;;;;;49.23;31.20;;;2.60;99.90;;;;;;5096452;28;20497;-70
2021/11/09 06:11:52;;;;;;;50.17;32.47;;;2.60;99.90;;;;;;5094169;28;20464;-71
2021/11/09 06:14:19;;;;;;;39.83;31.60;;;2.50;99.90;;;;;;5099603;28;21089;-71
2021/11/09 06:16:46;;;;;;;35.63;32.20;;;2.50;99.90;;;;;;5099486;28;20449;-69
2021/11/09 06:19:13;;;;;;;62.77;36.03;;;2.40;99.90;;;;;;5090965;28;20467;-70
2021/11/09 06:21:40;;;;;;;43.20;32.67;;;2.40;99.90;;;;;;5098151;28;20457;-69
2021/11/09 06:24:07;;;;;;;46.63;31.27;;;2.30;99.90;;;;;;5095929;28;20483;-70
2021/11/09 06:26:36;;;;;;;36.83;32.80;;;2.30;99.90;;;;;;5094138;28;20471;-67
2021/11/09 06:29:03;;;;;;;49.17;35.73;;;2.20;99.90;;;;;;5098967;28;20468;-70
2021/11/09 06:31:31;;;;;;;64.73;42.43;;;2.20;99.90;;;;;;5102705;28;20572;-68
2021/11/09 06:33:59;;;;;;;53.20;37.40;;;2.20;99.90;;;;;;5096808;28;20831;-71
2021/11/09 06:36:26;;;;;;;38.27;34.20;;;2.20;99.90;;;;;;5099441;28;20457;-68
2021/11/09 06:38:54;;;;;;;45.30;35.40;;;2.20;99.90;;;;;;5093955;28;20974;-69
2021/11/09 06:41:22;;;;;;;51.50;35.07;;;2.20;99.90;;;;;;5095363;28;20950;-72
2021/11/09 06:43:51;;;;;;;58.17;34.20;;;2.20;99.90;;;;;;5097583;28;20460;-68
2021/11/09 06:46:18;;;;;;;45.80;34.13;;;2.30;99.90;;;;;;5092137;28;20468;-69
2021/11/09 06:48:47;;;;;;;69.90;38.73;;;2.30;99.90;;;;;;5093090;28;20643;-72
2021/11/09 06:51:14;;;;;;;50.73;38.70;;;2.30;99.90;;;;;;5096478;28;20457;-68
2021/11/09 06:53:42;;;;;;;46.90;37.90;;;2.20;99.90;;;;;;5096698;28;20842;-69
2021/11/09 06:56:09;;;;;;;42.57;36.50;;;2.20;99.90;;;;;;5089700;28;20583;-69
2021/11/09 06:58:36;;;;;;;37.93;33.50;;;2.30;99.90;;;;;;5084032;28;20461;-68
2021/11/09 07:01:05;;;;;;;40.13;31.83;;;2.30;99.90;;;;;;5093880;28;20460;-70
2021/11/09 07:03:33;;;;;;;41.87;33.00;;;2.40;99.90;;;;;;5106150;28;20470;-68
2021/11/09 07:06:07;;;;;;;43.30;31.40;;;2.50;99.90;;;;;;5096518;28;20471;-71
2021/11/09 07:08:35;;;;;;;54.83;32.80;;;2.50;99.90;;;;;;5094560;28;20464;-69
2021/11/09 07:11:03;;;;;;;41.13;31.93;;;2.40;99.90;;;;;;5095976;28;20465;-72
2021/11/09 07:13:30;;;;;;;35.50;31.83;;;2.40;99.90;;;;;;5094621;28;20464;-71
2021/11/09 07:15:57;;;;;;;37.00;31.63;;;2.50;99.90;;;;;;5097832;28;20516;-68
2021/11/09 07:18:25;;;;;;;41.03;30.17;;;2.60;99.90;;;;;;5092384;28;20497;-70
2021/11/09 07:20:52;;;;;;;35.63;31.13;;;2.60;99.90;;;;;;5098763;28;20471;-71
2021/11/09 07:23:19;;;;;;;40.77;31.53;;;2.60;99.90;;;;;;5089763;28;20478;-70
2021/11/09 07:25:46;;;;;;;39.57;30.37;;;2.60;99.90;;;;;;5094896;28;20457;-68
2021/11/09 07:28:13;;;;;;;36.43;32.30;;;2.60;99.90;;;;;;5088247;28;20461;-69
2021/11/09 07:30:46;;;;;;;57.40;31.83;;;2.60;99.90;;;;;;5096123;28;20493;-71
2021/11/09 07:33:13;;;;;;;44.57;33.30;;;2.70;99.90;;;;;;5089074;28;20491;-70
2021/11/09 07:35:42;;;;;;;34.77;31.30;;;2.80;99.90;;;;;;5089039;28;20854;-70
2021/11/09 07:38:10;;;;;;;35.50;31.50;;;2.80;99.90;;;;;;5091415;28;20549;-69
2021/11/09 07:40:37;;;;;;;36.30;32.47;;;2.90;99.90;;;;;;5089038;28;20466;-68
2021/11/09 07:43:04;;;;;;;39.17;32.27;;;2.90;99.90;;;;;;5093267;28;20954;-70
2021/11/09 07:45:35;;;;;;;50.07;32.53;;;3.00;99.90;;;;;;5083837;28;20469;-68
2021/11/09 07:48:01;;;;;;;41.57;30.53;;;3.00;99.90;;;;;;5085300;28;20460;-68
2021/11/09 07:50:30;;;;;;;39.40;30.53;;;3.10;99.90;;;;;;5081455;28;22726;-68
2021/11/09 07:52:59;;;;;;;35.80;30.33;;;3.20;99.90;;;;;;5089967;28;20461;-68
2021/11/09 07:55:28;;;;;;;34.70;29.90;;;3.30;99.90;;;;;;5095933;28;20484;-69
2021/11/09 07:57:58;;;;;;;39.23;31.87;;;3.40;99.90;;;;;;5103102;28;20453;-71
2021/11/09 08:00:32;;;;;;;32.50;29.07;;;3.40;99.90;;;;;;5097938;28;20480;-70
2021/11/09 08:03:07;;;;;;;38.93;27.50;;;3.60;99.90;;;;;;5096999;28;20463;-68
2021/11/09 08:05:38;;;;;;;34.23;30.20;;;3.80;99.90;;;;;;5093060;28;20468;-71
2021/11/09 08:08:11;;;;;;;36.47;26.80;;;3.80;99.90;;;;;;5096132;28;21038;-68
2021/11/09 08:10:38;;;;;;;33.57;30.07;;;3.90;99.90;;;;;;5097305;28;20472;-68
2021/11/09 08:13:05;;;;;;;35.97;27.93;;;3.90;99.90;;;;;;5093457;28;20564;-68
2021/11/09 08:15:33;;;;;;;41.97;29.30;;;4.00;99.90;;;;;;5092627;28;20893;-69
2021/11/09 08:18:00;;;;;;;31.77;26.10;;;4.00;99.90;;;;;;5089793;28;20457;-70
2021/11/09 08:20:28;;;;;;;32.40;26.87;;;4.10;99.90;;;;;;5092090;28;20470;-72
2021/11/09 08:22:55;;;;;;;37.87;27.17;;;4.20;99.90;;;;;;5085620;28;20527;-68
2021/11/09 08:25:23;;;;;;;37.97;30.43;;;4.20;99.90;;;;;;5090059;28;20461;-67
2021/11/09 08:27:50;;;;;;;42.73;30.10;;;4.30;99.90;;;;;;5094196;28;20478;-68
2021/11/09 08:30:17;;;;;;;39.53;30.00;;;4.40;99.90;;;;;;5090879;28;20604;-68
2021/11/09 08:32:45;;;;;;;51.50;29.90;;;4.40;99.90;;;;;;5092139;28;20468;-69
2021/11/09 08:35:15;;;;;;;36.90;28.70;;;4.50;99.90;;;;;;5089367;28;20492;-69
2021/11/09 08:37:42;;;;;;;46.13;28.30;;;4.60;99.90;;;;;;5091633;28;21023;-69
2021/11/09 08:40:14;;;;;;;42.23;28.20;;;4.70;99.90;;;;;;5095982;28;20465;-69
2021/11/09 08:42:47;;;;;;;50.63;30.37;;;4.80;99.90;;;;;;5091464;28;20453;-68
2021/11/09 08:45:23;;;;;;;39.40;27.57;;;4.90;99.90;;;;;;5098556;28;20561;-69
2021/11/09 08:47:53;;;;;;;39.23;27.30;;;5.00;99.90;;;;;;5094276;28;20465;-69
2021/11/09 08:50:22;;;;;;;33.47;28.80;;;5.10;99.90;;;;;;5095345;28;20465;-68
2021/11/09 08:52:51;;;;;;;38.33;28.57;;;5.10;99.90;;;;;;5097611;28;20503;-69
2021/11/09 08:55:31;;;;;;;73.93;30.80;;;5.10;99.90;;;;;;5092768;28;20585;-69
2021/11/09 09:06:10;;;;;;;48.40;32.17;;;5.40;99.90;;;;;;5094222;28;20534;-69
2021/11/09 09:08:37;;;;;;;51.13;32.47;;;5.50;99.90;;;;;;5091835;28;20917;-71
2021/11/09 09:11:05;;;;;;;41.10;29.03;;;5.60;99.90;;;;;;5092804;28;20828;-68
2021/11/09 09:13:34;;;;;;;46.23;28.70;;;5.70;99.90;;;;;;5098228;28;20458;-69
2021/11/09 09:16:01;;;;;;;46.17;29.70;;;5.80;99.90;;;;;;5096435;28;20490;-69
2021/11/09 09:18:29;;;;;;;41.13;28.33;;;5.90;99.90;;;;;;5087283;28;21057;-69
2021/11/09 09:20:59;;;;;;;44.63;29.60;;;6.00;99.90;;;;;;5096095;28;20807;-72
2021/11/09 09:23:30;;;;;;;60.73;32.93;;;6.00;99.90;;;;;;5096977;28;20482;-68
2021/11/09 09:26:10;;;;;;;41.83;32.07;;;6.10;99.90;;;;;;5096339;28;20588;-71
2021/11/09 09:53:27;;;;;;;35.60;29.23;;;7.00;99.90;;;;;;5093066;28;20457;-69
2021/11/09 09:55:55;;;;;;;35.73;28.57;;;7.10;99.90;;;;;;5094510;28;20490;-71
2021/11/09 09:58:22;;;;;;;38.03;29.70;;;7.20;99.90;;;;;;5093394;28;20458;-69
2021/11/09 10:00:51;;;;;;;40.00;28.00;;;7.30;99.90;;;;;;5100044;28;20475;-69
2021/11/09 10:03:18;;;;;;;35.37;29.00;;;7.40;99.90;;;;;;5090185;28;20556;-72
2021/11/09 10:05:45;;;;;;;44.97;28.20;;;7.50;99.90;;;;;;5093587;28;20481;-70
2021/11/09 10:08:15;;;;;;;37.33;28.93;;;7.60;99.90;;;;;;5095318;28;20904;-69
2021/11/09 10:10:42;;;;;;;30.80;27.97;;;7.60;99.90;;;;;;5087700;28;20459;-68
2021/11/09 10:13:13;;;;;;;36.03;28.03;;;7.70;99.90;;;;;;5100631;28;20468;-70
2021/11/09 10:15:43;;;;;;;40.17;28.60;;;7.80;99.90;;;;;;5097822;28;20996;-70
2021/11/09 10:18:14;;;;;;;43.03;29.40;;;7.90;99.90;;;;;;5098500;28;20967;-69
2021/11/09 10:20:47;;;;;;;42.67;29.37;;;8.10;99.90;;;;;;5093068;28;20457;-72
2021/11/09 10:23:17;;;;;;;51.33;28.27;;;8.20;99.90;;;;;;5088790;28;20468;-69
2021/11/09 10:25:46;;;;;;;36.60;28.20;;;8.40;99.90;;;;;;5089364;28;20967;-68
2021/11/09 10:28:18;;;;;;;41.43;27.47;;;8.50;99.90;;;;;;5086483;28;20455;-72
2021/11/09 10:30:49;;;;;;;34.43;25.80;;;8.70;99.90;;;;;;5086508;28;20486;-69
2021/11/09 10:33:23;;;;;;;37.23;24.93;;;9.20;99.90;;;;;;5091117;28;20469;-68
2021/11/09 10:35:51;;;;;;;33.30;24.80;;;10.10;99.90;;;;;;5092539;28;20583;-69
2021/11/09 10:38:29;;;;;;;26.33;23.60;;;11.00;99.90;;;;;;5094263;28;20469;-69
2021/11/09 10:40:56;;;;;;;25.87;21.23;;;11.90;99.90;;;;;;5092375;28;20555;-68
2021/11/09 10:43:24;;;;;;;26.13;20.80;;;13.30;99.90;;;;;;5091876;28;20461;-71
2021/11/09 10:45:52;;;;;;;25.30;20.47;;;14.10;99.90;;;;;;5101216;28;20472;-69
2021/11/09 10:48:22;;;;;;;27.93;21.13;;;14.70;99.90;;;;;;5094101;28;20812;-73
2021/11/09 10:50:52;;;;;;;23.87;19.97;;;15.10;99.90;;;;;;5097266;28;20461;-69
2021/11/09 10:53:22;;;;;;;31.20;20.60;;;15.90;99.90;;;;;;5096685;28;20936;-73
2021/11/09 10:55:58;;;;;;;32.93;19.37;;;16.20;99.90;;;;;;5095346;28;20539;-70
2021/11/09 10:58:41;;;;;;;21.47;19.57;;;16.60;99.90;;;;;;5099543;28;20462;-71
2021/11/09 11:03:58;;;;;;;19.60;17.60;;;17.40;99.90;;;;;;5090930;28;21029;-71
2021/11/09 11:06:27;;;;;;;19.70;17.87;;;17.70;99.90;;;;;;5097527;28;20927;-69
2021/11/09 11:08:56;;;;;;;19.20;17.70;;;18.30;99.90;;;;;;5097651;28;20547;-70
2021/11/09 11:11:28;;;;;;;24.70;17.93;;;18.50;99.90;;;;;;5095609;28;20556;-70
2021/11/09 11:14:06;;;;;;;20.60;18.70;;;18.70;99.90;;;;;;5095248;28;20458;-74
2021/11/09 11:16:39;;;;;;;24.80;18.93;;;18.80;99.90;;;;;;5096216;28;20718;-74
2021/11/09 11:19:08;;;;;;;20.80;18.90;;;18.90;99.90;;;;;;5089770;28;20461;-72
2021/11/09 11:21:35;;;;;;;20.17;18.47;;;18.90;99.90;;;;;;5088961;28;20462;-70
2021/11/09 11:24:03;;;;;;;21.27;19.10;;;18.70;99.90;;;;;;5091661;28;20484;-75
2021/11/09 11:26:33;;;;;;;20.47;18.37;;;19.00;99.90;;;;;;5096179;28;20470;-69
2021/11/09 11:29:00;;;;;;;22.93;18.93;;;19.30;99.90;;;;;;5092924;28;20453;-69
2021/11/09 11:31:29;;;;;;;21.70;19.37;;;19.40;99.90;;;;;;5098889;28;20489;-70
2021/11/09 11:33:56;;;;;;;21.07;18.93;;;19.00;99.90;;;;;;5091379;28;20453;-69
2021/11/09 11:36:25;;;;;;;20.50;18.13;;;18.80;99.90;;;;;;5094063;28;20978;-71
2021/11/09 11:38:55;;;;;;;20.20;18.43;;;18.40;99.90;;;;;;5091788;28;20512;-70
2021/11/09 11:41:24;;;;;;;20.53;18.20;;;18.00;99.90;;;;;;5096560;28;20457;-71
2021/11/09 11:43:57;;;;;;;20.30;18.33;;;18.10;99.90;;;;;;5093828;28;20527;-70
2021/11/09 11:46:47;;;;;;;20.47;18.30;;;18.60;99.90;;;;;;5094451;28;20461;-74
2021/11/09 11:49:18;;;;;;;19.43;17.60;;;18.40;99.90;;;;;;5092754;28;20935;-73
2021/11/09 11:52:21;;;;;;;22.97;19.00;;;18.20;99.90;;;;;;5092818;28;20477;-71
2021/11/09 11:55:04;;;;;;;27.63;19.53;;;17.60;99.90;;;;;;5086471;28;20557;-69
2021/11/09 11:57:52;;;;;;;19.70;17.77;;;17.80;99.90;;;;;;5078895;28;21129;-68
2021/11/09 12:00:53;;;;;;;22.67;17.90;;;18.10;99.90;;;;;;5090041;28;21012;-71
2021/11/09 12:03:41;;;;;;;22.10;18.07;;;18.20;99.90;;;;;;5080802;28;20457;-71
2021/11/09 12:06:27;;;;;;;19.10;17.10;;;18.70;99.90;;;;;;5084919;28;20458;-74
2021/11/09 12:08:56;;;;;;;19.20;17.40;;;18.80;99.90;;;;;;5086385;28;20823;-70
2021/11/09 12:11:40;;;;;;;19.70;17.90;;;19.00;99.90;;;;;;5087684;28;20967;-73
2021/11/09 12:14:10;;;;;;;18.67;16.93;;;19.20;99.90;;;;;;5091322;28;20461;-71
2021/11/09 12:16:43;;;;;;;19.63;17.97;;;19.30;99.90;;;;;;5095257;28;20842;-71
2021/11/09 12:19:32;;;;;;;20.43;18.17;;;19.50;99.90;;;;;;5100002;28;20817;-71
2021/11/09 12:22:06;;;;;;;19.97;18.00;;;19.40;99.90;;;;;;5088175;28;20910;-74
2021/11/09 12:24:47;;;;;;;19.07;17.20;;;19.70;99.90;;;;;;5093162;28;20850;-71
2021/11/09 12:27:15;;;;;;;19.70;17.77;;;19.90;99.90;;;;;;5094753;28;20524;-68
2021/11/09 12:29:54;;;;;;;19.10;17.30;;;19.90;99.90;;;;;;5097562;28;20457;-69
2021/11/09 12:32:38;;;;;;;18.27;16.50;;;19.80;99.90;;;;;;5097562;28;20463;-71
2021/11/09 12:35:21;;;;;;;17.97;16.43;;;19.80;99.90;;;;;;5089521;28;21046;-68
2021/11/09 12:38:07;;;;;;;18.23;16.40;;;19.70;99.90;;;;;;5090146;28;20465;-69
2021/11/09 12:40:36;;;;;;;20.50;17.63;;;19.80;99.90;;;;;;5087382;28;20476;-69
2021/11/09 12:43:10;;;;;;;23.73;17.37;;;19.80;99.90;;;;;;5099659;28;20497;-70
2021/11/09 12:45:40;;;;;;;23.33;18.23;;;20.00;99.90;;;;;;5093234;28;21035;-69
2021/11/09 12:48:09;;;;;;;19.03;17.33;;;19.90;99.90;;;;;;5091309;28;20534;-70
2021/11/09 12:50:39;;;;;;;28.90;17.77;;;20.00;99.90;;;;;;5093092;28;20461;-69
2021/11/09 12:53:09;;;;;;;24.63;18.17;;;20.20;99.90;;;;;;5096930;28;20460;-69
2021/11/09 12:55:36;;;;;;;21.70;18.33;;;20.20;99.90;;;;;;5096158;28;20468;-70
2021/11/09 12:58:20;;;;;;;25.17;18.73;;;19.50;99.90;;;;;;5095258;28;20462;-71
2021/11/09 13:01:06;;;;;;;19.47;17.70;;;19.40;99.90;;;;;;5093497;28;20978;-72
2021/11/09 13:03:35;;;;;;;20.43;17.53;;;19.40;99.90;;;;;;5093591;28;20531;-74
2021/11/09 13:06:16;;;;;;;20.03;18.17;;;19.60;99.90;;;;;;5093325;28;20788;-72
2021/11/09 13:09:02;;;;;;;19.80;17.77;;;19.60;99.90;;;;;;5095174;28;20832;-71
2021/11/09 13:11:32;;;;;;;21.77;17.17;;;19.50;99.90;;;;;;5093150;28;20974;-72
2021/11/09 13:14:05;;;;;;;25.33;18.27;;;19.50;99.90;;;;;;5094177;28;20535;-73
2021/11/09 13:16:33;;;;;;;26.00;18.00;;;19.00;99.90;;;;;;5095779;28;20469;-69
2021/11/09 13:19:07;;;;;;;20.50;18.43;;;19.40;99.90;;;;;;5088210;28;20591;-72
2021/11/09 13:21:35;;;;;;;23.07;17.70;;;19.70;99.90;;;;;;5095667;28;20477;-69
2021/11/09 13:24:02;;;;;;;19.97;18.00;;;19.90;99.90;;;;;;5095599;28;20486;-69
2021/11/09 13:26:30;;;;;;;19.90;17.90;;;19.60;99.30;;;;;;5092065;28;20486;-69
2021/11/09 13:28:57;;;;;;;22.00;18.20;;;19.50;99.90;;;;;;5095434;28;20465;-73
2021/11/09 13:31:30;;;;;;;22.20;17.83;;;19.60;99.90;;;;;;5096656;28;20857;-69
2021/11/09 13:33:57;;;;;;;19.83;17.93;;;19.50;99.90;;;;;;5090763;28;20473;-69
2021/11/09 13:36:24;;;;;;;19.60;17.80;;;19.40;99.90;;;;;;5092866;28;20462;-69
2021/11/09 13:38:51;;;;;;;18.20;16.70;;;19.60;99.90;;;;;;5097729;28;20989;-71
2021/11/09 13:41:29;;;;;;;19.27;17.37;;;19.80;99.40;;;;;;5092024;28;20462;-69
2021/11/09 13:43:58;;;;;;;19.23;17.23;;;19.90;98.90;;;;;;5095374;28;20457;-70
2021/11/09 13:46:29;;;;;;;18.80;17.30;;;20.20;99.10;;;;;;5092555;28;20474;-69
2021/11/09 13:48:58;;;;;;;19.63;17.70;;;20.30;98.30;;;;;;5091590;28;20462;-69
2021/11/09 13:51:27;;;;;;;19.23;17.33;;;20.10;98.40;;;;;;5090677;28;20469;-69
2021/11/09 13:53:58;;;;;;;19.73;17.80;;;19.60;97.50;;;;;;5089156;28;20549;-71
2021/11/09 13:56:26;;;;;;;19.47;17.60;;;19.70;98.80;;;;;;5090142;28;20456;-70
2021/11/09 13:58:58;;;;;;;19.70;17.40;;;19.90;98.60;;;;;;5088397;28;20470;-69
2021/11/09 14:01:35;;;;;;;18.00;16.47;;;20.00;98.20;;;;;;5091715;28;20458;-70
2021/11/09 14:04:09;;;;;;;18.97;17.43;;;20.00;97.70;;;;;;5093038;28;20460;-69
2021/11/09 14:07:06;;;;;;;21.50;18.57;;;19.60;98.00;;;;;;5089602;28;20538;-71
2021/11/09 14:09:52;;;;;;;19.93;17.90;;;19.40;97.80;;;;;;5087415;28;20556;-69
2021/11/09 14:15:17;;;;;;;19.63;17.87;;;19.20;97.10;;;;;;5097779;28;20465;-73
2021/11/09 14:17:46;;;;;;;21.13;16.93;;;19.40;97.20;;;;;;5090562;28;20508;-73
2021/11/09 14:20:15;;;;;;;17.77;16.40;;;19.30;97.90;;;;;;5091320;28;20461;-71
2021/11/09 14:22:42;;;;;;;19.40;17.53;;;19.70;97.60;;;;;;5093273;28;20545;-70